sensor_id;sensor_type;location;lat;lon;timestamp;temperature;humidity
84335;DHT22;74512;51.190;3.198;2023-12-28T00:00:30;11.40;1.00
84335;DHT22;74512;51.190;3.198;2023-12-28T00:02:56;11.20;1.00
84335;DHT22;74512;51.190;3.198;2023-12-28T00:05:21;11.40;1.00
84335;DHT22;74512;51.190;3.198;2023-12-28T00:07:47;11.30;1.00
84335;DHT22;74512;51.190;3.198;2023-12-28T00:10:13;11.20;1.00
84335;DHT22;74512;51.190;3.198;2023-12-28T00:12:38;11.30;1.00
84335;DHT22;74512;51.190;3.198;2023-12-28T00:15:04;11.30;1.00
84335;DHT22;74512;51.190;3.198;2023-12-28T00:17:30;11.50;1.00
84335;DHT22;74512;51.190;3.198;2023-12-28T00:19:56;11.40;1.00
84335;DHT22;74512;51.190;3.198;2023-12-28T00:22:22;11.30;1.00
84335;DHT22;74512;51.190;3.198;2023-12-28T00:24:47;11.20;1.00
84335;DHT22;74512;51.190;3.198;2023-12-28T00:27:13;11.20;1.00
84335;DHT22;74512;51.190;3.198;2023-12-28T00:29:39;11.20;1.00
84335;DHT22;74512;51.190;3.198;2023-12-28T00:32:05;11.20;1.00
84335;DHT22;74512;51.190;3.198;2023-12-28T00:34:31;11.30;1.00
84335;DHT22;74512;51.190;3.198;2023-12-28T00:36:57;11.20;1.00
84335;DHT22;74512;51.190;3.198;2023-12-28T00:39:22;11.30;1.00
84335;DHT22;74512;51.190;3.198;2023-12-28T00:41:48;11.20;1.00
84335;DHT22;74512;51.190;3.198;2023-12-28T00:44:13;11.30;1.00
84335;DHT22;74512;51.190;3.198;2023-12-28T00:46:39;11.20;1.00
84335;DHT22;74512;51.190;3.198;2023-12-28T00:49:05;11.30;1.00
84335;DHT22;74512;51.190;3.198;2023-12-28T00:51:30;11.40;1.00
84335;DHT22;74512;51.190;3.198;2023-12-28T00:53:56;11.30;1.00
84335;DHT22;74512;51.190;3.198;2023-12-28T00:56:22;11.30;1.00
84335;DHT22;74512;51.190;3.198;2023-12-28T00:58:48;11.30;1.00
84335;DHT22;74512;51.190;3.198;2023-12-28T01:01:13;11.30;1.00
84335;DHT22;74512;51.190;3.198;2023-12-28T01:03:39;11.30;1.00
84335;DHT22;74512;51.190;3.198;2023-12-28T01:06:05;11.30;1.00
84335;DHT22;74512;51.190;3.198;2023-12-28T01:08:31;11.20;1.00
84335;DHT22;74512;51.190;3.198;2023-12-28T01:10:59;11.30;1.00
84335;DHT22;74512;51.190;3.198;2023-12-28T01:13:25;11.30;1.00
84335;DHT22;74512;51.190;3.198;2023-12-28T01:15:51;11.40;1.00
84335;DHT22;74512;51.190;3.198;2023-12-28T01:18:16;11.30;1.00
84335;DHT22;74512;51.190;3.198;2023-12-28T01:20:42;11.30;1.00
84335;DHT22;74512;51.190;3.198;2023-12-28T01:23:08;11.30;1.00
84335;DHT22;74512;51.190;3.198;2023-12-28T01:25:33;11.30;1.00
84335;DHT22;74512;51.190;3.198;2023-12-28T01:27:59;11.40;1.00
84335;DHT22;74512;51.190;3.198;2023-12-28T01:30:25;11.40;1.00
84335;DHT22;74512;51.190;3.198;2023-12-28T01:32:51;11.30;1.00
84335;DHT22;74512;51.190;3.198;2023-12-28T01:35:17;11.30;1.00
84335;DHT22;74512;51.190;3.198;2023-12-28T01:37:43;11.20;1.00
84335;DHT22;74512;51.190;3.198;2023-12-28T01:40:09;11.20;1.00
84335;DHT22;74512;51.190;3.198;2023-12-28T01:42:35;11.20;1.00
84335;DHT22;74512;51.190;3.198;2023-12-28T01:45:01;11.30;1.00
84335;DHT22;74512;51.190;3.198;2023-12-28T01:47:27;11.30;1.00
84335;DHT22;74512;51.190;3.198;2023-12-28T01:49:54;11.30;1.00
84335;DHT22;74512;51.190;3.198;2023-12-28T01:52:21;11.40;1.00
84335;DHT22;74512;51.190;3.198;2023-12-28T01:54:47;11.30;1.00
84335;DHT22;74512;51.190;3.198;2023-12-28T01:57:13;11.30;1.00
84335;DHT22;74512;51.190;3.198;2023-12-28T01:59:40;11.30;1.00
84335;DHT22;74512;51.190;3.198;2023-12-28T02:02:07;11.30;1.00
84335;DHT22;74512;51.190;3.198;2023-12-28T02:04:33;11.40;1.00
84335;DHT22;74512;51.190;3.198;2023-12-28T02:07:00;11.40;1.00
84335;DHT22;74512;51.190;3.198;2023-12-28T02:09:26;11.30;1.00
84335;DHT22;74512;51.190;3.198;2023-12-28T02:11:52;11.30;1.00
84335;DHT22;74512;51.190;3.198;2023-12-28T02:14:18;11.30;1.00
84335;DHT22;74512;51.190;3.198;2023-12-28T02:16:49;11.10;1.00
84335;DHT22;74512;51.190;3.198;2023-12-28T02:19:30;11.10;1.00
84335;DHT22;74512;51.190;3.198;2023-12-28T02:21:59;11.20;1.00
84335;DHT22;74512;51.190;3.198;2023-12-28T02:24:26;11.10;1.00
84335;DHT22;74512;51.190;3.198;2023-12-28T02:26:51;11.20;1.00
84335;DHT22;74512;51.190;3.198;2023-12-28T02:29:18;11.10;1.00
84335;DHT22;74512;51.190;3.198;2023-12-28T02:31:51;11.20;1.00
84335;DHT22;74512;51.190;3.198;2023-12-28T02:34:33;11.20;1.00
84335;DHT22;74512;51.190;3.198;2023-12-28T02:37:01;11.20;1.00
84335;DHT22;74512;51.190;3.198;2023-12-28T02:39:28;11.20;1.00
84335;DHT22;74512;51.190;3.198;2023-12-28T02:41:55;11.20;1.00
84335;DHT22;74512;51.190;3.198;2023-12-28T02:44:21;11.10;1.00
84335;DHT22;74512;51.190;3.198;2023-12-28T02:46:46;11.20;1.00
84335;DHT22;74512;51.190;3.198;2023-12-28T02:49:12;11.20;1.00
84335;DHT22;74512;51.190;3.198;2023-12-28T02:51:38;11.20;1.00
84335;DHT22;74512;51.190;3.198;2023-12-28T02:54:04;11.20;1.00
84335;DHT22;74512;51.190;3.198;2023-12-28T02:56:29;11.20;1.00
84335;DHT22;74512;51.190;3.198;2023-12-28T02:58:57;11.30;1.00
84335;DHT22;74512;51.190;3.198;2023-12-28T03:01:23;11.20;1.00
84335;DHT22;74512;51.190;3.198;2023-12-28T03:03:48;11.10;1.00
84335;DHT22;74512;51.190;3.198;2023-12-28T03:06:14;11.20;1.00
84335;DHT22;74512;51.190;3.198;2023-12-28T03:08:40;11.10;1.00
84335;DHT22;74512;51.190;3.198;2023-12-28T03:11:06;11.20;1.00
84335;DHT22;74512;51.190;3.198;2023-12-28T03:13:31;11.30;1.00
84335;DHT22;74512;51.190;3.198;2023-12-28T03:15:57;11.20;1.00
84335;DHT22;74512;51.190;3.198;2023-12-28T03:18:23;11.00;1.00
84335;DHT22;74512;51.190;3.198;2023-12-28T03:20:49;11.00;1.00
84335;DHT22;74512;51.190;3.198;2023-12-28T03:23:14;11.10;1.00
84335;DHT22;74512;51.190;3.198;2023-12-28T03:25:40;11.20;1.00
84335;DHT22;74512;51.190;3.198;2023-12-28T03:28:06;11.20;1.00
84335;DHT22;74512;51.190;3.198;2023-12-28T03:30:31;11.20;1.00
84335;DHT22;74512;51.190;3.198;2023-12-28T03:32:57;11.20;1.00
84335;DHT22;74512;51.190;3.198;2023-12-28T03:35:22;11.20;1.00
84335;DHT22;74512;51.190;3.198;2023-12-28T03:37:48;11.20;1.00
84335;DHT22;74512;51.190;3.198;2023-12-28T03:40:14;11.10;1.00
84335;DHT22;74512;51.190;3.198;2023-12-28T03:42:40;11.00;1.00
84335;DHT22;74512;51.190;3.198;2023-12-28T03:45:07;11.20;1.00
84335;DHT22;74512;51.190;3.198;2023-12-28T03:47:33;11.10;1.00
84335;DHT22;74512;51.190;3.198;2023-12-28T03:49:58;11.20;1.00
84335;DHT22;74512;51.190;3.198;2023-12-28T03:52:27;11.10;1.00
84335;DHT22;74512;51.190;3.198;2023-12-28T03:54:55;11.20;1.00
84335;DHT22;74512;51.190;3.198;2023-12-28T03:57:21;11.10;1.00
84335;DHT22;74512;51.190;3.198;2023-12-28T03:59:46;11.10;1.00
84335;DHT22;74512;51.190;3.198;2023-12-28T04:02:13;11.20;1.00
84335;DHT22;74512;51.190;3.198;2023-12-28T04:04:39;11.10;1.00
84335;DHT22;74512;51.190;3.198;2023-12-28T04:07:05;11.30;1.00
84335;DHT22;74512;51.190;3.198;2023-12-28T04:09:33;11.20;1.00
84335;DHT22;74512;51.190;3.198;2023-12-28T04:11:58;11.20;1.00
84335;DHT22;74512;51.190;3.198;2023-12-28T04:14:24;11.20;1.00
84335;DHT22;74512;51.190;3.198;2023-12-28T04:16:50;11.10;1.00
84335;DHT22;74512;51.190;3.198;2023-12-28T04:19:15;11.10;1.00
84335;DHT22;74512;51.190;3.198;2023-12-28T04:21:44;11.20;1.00
84335;DHT22;74512;51.190;3.198;2023-12-28T04:24:10;11.20;1.00
84335;DHT22;74512;51.190;3.198;2023-12-28T04:26:35;11.20;1.00
84335;DHT22;74512;51.190;3.198;2023-12-28T04:29:02;11.20;1.00
84335;DHT22;74512;51.190;3.198;2023-12-28T04:31:27;11.10;1.00
84335;DHT22;74512;51.190;3.198;2023-12-28T04:33:53;11.10;1.00
84335;DHT22;74512;51.190;3.198;2023-12-28T04:36:19;11.10;1.00
84335;DHT22;74512;51.190;3.198;2023-12-28T04:38:44;11.20;1.00
84335;DHT22;74512;51.190;3.198;2023-12-28T04:41:10;11.00;1.00
84335;DHT22;74512;51.190;3.198;2023-12-28T04:43:37;11.10;1.00
84335;DHT22;74512;51.190;3.198;2023-12-28T04:46:04;11.00;1.00
84335;DHT22;74512;51.190;3.198;2023-12-28T04:48:31;11.20;1.00
84335;DHT22;74512;51.190;3.198;2023-12-28T04:50:56;11.10;1.00
84335;DHT22;74512;51.190;3.198;2023-12-28T04:53:22;11.10;1.00
84335;DHT22;74512;51.190;3.198;2023-12-28T04:55:48;11.10;1.00
84335;DHT22;74512;51.190;3.198;2023-12-28T04:58:13;11.10;1.00
84335;DHT22;74512;51.190;3.198;2023-12-28T05:00:39;11.10;1.00
84335;DHT22;74512;51.190;3.198;2023-12-28T05:03:05;11.00;1.00
84335;DHT22;74512;51.190;3.198;2023-12-28T05:05:34;11.10;1.00
84335;DHT22;74512;51.190;3.198;2023-12-28T05:07:59;11.30;1.00
84335;DHT22;74512;51.190;3.198;2023-12-28T05:10:25;11.10;1.00
84335;DHT22;74512;51.190;3.198;2023-12-28T05:12:51;11.10;1.00
84335;DHT22;74512;51.190;3.198;2023-12-28T05:15:16;11.20;1.00
84335;DHT22;74512;51.190;3.198;2023-12-28T05:17:44;11.10;1.00
84335;DHT22;74512;51.190;3.198;2023-12-28T05:20:10;11.20;1.00
84335;DHT22;74512;51.190;3.198;2023-12-28T05:22:36;11.40;1.00
84335;DHT22;74512;51.190;3.198;2023-12-28T05:25:01;11.30;1.00
84335;DHT22;74512;51.190;3.198;2023-12-28T05:27:27;11.30;1.00
84335;DHT22;74512;51.190;3.198;2023-12-28T05:29:53;11.30;1.00
84335;DHT22;74512;51.190;3.198;2023-12-28T05:32:18;11.20;1.00
84335;DHT22;74512;51.190;3.198;2023-12-28T05:34:44;11.20;1.00
84335;DHT22;74512;51.190;3.198;2023-12-28T05:37:10;11.20;1.00
84335;DHT22;74512;51.190;3.198;2023-12-28T05:39:35;11.10;1.00
84335;DHT22;74512;51.190;3.198;2023-12-28T05:42:01;11.00;1.00
84335;DHT22;74512;51.190;3.198;2023-12-28T05:44:27;11.10;1.00
84335;DHT22;74512;51.190;3.198;2023-12-28T05:46:52;11.10;1.00
84335;DHT22;74512;51.190;3.198;2023-12-28T05:49:18;11.20;1.00
84335;DHT22;74512;51.190;3.198;2023-12-28T05:51:44;11.20;1.00
84335;DHT22;74512;51.190;3.198;2023-12-28T05:54:09;11.30;1.00
84335;DHT22;74512;51.190;3.198;2023-12-28T05:56:35;11.30;1.00
84335;DHT22;74512;51.190;3.198;2023-12-28T05:59:01;11.30;1.00
84335;DHT22;74512;51.190;3.198;2023-12-28T06:01:27;11.30;1.00
84335;DHT22;74512;51.190;3.198;2023-12-28T06:03:53;11.20;1.00
84335;DHT22;74512;51.190;3.198;2023-12-28T06:06:19;11.30;1.00
84335;DHT22;74512;51.190;3.198;2023-12-28T06:08:44;11.20;1.00
84335;DHT22;74512;51.190;3.198;2023-12-28T06:11:10;11.30;1.00
84335;DHT22;74512;51.190;3.198;2023-12-28T06:13:36;11.20;1.00
84335;DHT22;74512;51.190;3.198;2023-12-28T06:16:02;11.10;1.00
84335;DHT22;74512;51.190;3.198;2023-12-28T06:18:27;11.10;1.00
84335;DHT22;74512;51.190;3.198;2023-12-28T06:20:53;11.30;1.00
84335;DHT22;74512;51.190;3.198;2023-12-28T06:23:19;11.20;1.00
84335;DHT22;74512;51.190;3.198;2023-12-28T06:25:44;11.10;1.00
84335;DHT22;74512;51.190;3.198;2023-12-28T06:28:10;11.20;1.00
84335;DHT22;74512;51.190;3.198;2023-12-28T06:30:36;11.20;1.00
84335;DHT22;74512;51.190;3.198;2023-12-28T06:33:02;11.20;1.00
84335;DHT22;74512;51.190;3.198;2023-12-28T06:35:27;11.20;1.00
84335;DHT22;74512;51.190;3.198;2023-12-28T06:37:53;11.20;1.00
84335;DHT22;74512;51.190;3.198;2023-12-28T06:40:19;11.20;1.00
84335;DHT22;74512;51.190;3.198;2023-12-28T06:42:44;11.20;1.00
84335;DHT22;74512;51.190;3.198;2023-12-28T06:45:10;11.20;1.00
84335;DHT22;74512;51.190;3.198;2023-12-28T06:47:36;11.30;1.00
84335;DHT22;74512;51.190;3.198;2023-12-28T06:50:01;11.30;1.00
84335;DHT22;74512;51.190;3.198;2023-12-28T06:52:27;11.40;1.00
84335;DHT22;74512;51.190;3.198;2023-12-28T06:54:53;11.30;1.00
84335;DHT22;74512;51.190;3.198;2023-12-28T06:57:19;11.20;1.00
84335;DHT22;74512;51.190;3.198;2023-12-28T06:59:45;11.20;1.00
84335;DHT22;74512;51.190;3.198;2023-12-28T07:02:10;11.30;1.00
84335;DHT22;74512;51.190;3.198;2023-12-28T07:04:36;11.20;1.00
84335;DHT22;74512;51.190;3.198;2023-12-28T07:07:02;11.30;1.00
84335;DHT22;74512;51.190;3.198;2023-12-28T07:09:27;11.30;1.00
84335;DHT22;74512;51.190;3.198;2023-12-28T07:11:53;11.20;1.00
84335;DHT22;74512;51.190;3.198;2023-12-28T07:14:19;11.40;1.00
84335;DHT22;74512;51.190;3.198;2023-12-28T07:16:44;11.50;1.00
84335;DHT22;74512;51.190;3.198;2023-12-28T07:19:10;11.20;1.00
84335;DHT22;74512;51.190;3.198;2023-12-28T07:21:36;11.40;1.00
84335;DHT22;74512;51.190;3.198;2023-12-28T07:24:02;11.30;1.00
84335;DHT22;74512;51.190;3.198;2023-12-28T07:26:27;11.30;1.00
84335;DHT22;74512;51.190;3.198;2023-12-28T07:28:53;11.50;1.00
84335;DHT22;74512;51.190;3.198;2023-12-28T07:31:27;11.50;1.00
84335;DHT22;74512;51.190;3.198;2023-12-28T07:33:53;11.40;1.00
84335;DHT22;74512;51.190;3.198;2023-12-28T07:36:19;11.40;1.00
84335;DHT22;74512;51.190;3.198;2023-12-28T07:38:45;11.30;1.00
84335;DHT22;74512;51.190;3.198;2023-12-28T07:41:11;11.30;1.00
84335;DHT22;74512;51.190;3.198;2023-12-28T07:43:37;11.40;1.00
84335;DHT22;74512;51.190;3.198;2023-12-28T07:46:03;11.50;1.00
84335;DHT22;74512;51.190;3.198;2023-12-28T07:48:29;11.40;1.00
84335;DHT22;74512;51.190;3.198;2023-12-28T07:50:56;11.50;1.00
84335;DHT22;74512;51.190;3.198;2023-12-28T07:53:22;11.60;1.00
84335;DHT22;74512;51.190;3.198;2023-12-28T07:55:48;11.60;1.00
84335;DHT22;74512;51.190;3.198;2023-12-28T07:58:14;11.70;1.00
84335;DHT22;74512;51.190;3.198;2023-12-28T08:00:40;11.60;1.00
84335;DHT22;74512;51.190;3.198;2023-12-28T08:03:05;11.60;1.00
84335;DHT22;74512;51.190;3.198;2023-12-28T08:05:31;11.70;1.00
84335;DHT22;74512;51.190;3.198;2023-12-28T08:07:57;11.50;1.00
84335;DHT22;74512;51.190;3.198;2023-12-28T08:10:22;11.50;1.00
84335;DHT22;74512;51.190;3.198;2023-12-28T08:12:48;11.50;1.00
84335;DHT22;74512;51.190;3.198;2023-12-28T08:15:14;11.50;1.00
84335;DHT22;74512;51.190;3.198;2023-12-28T08:17:39;11.40;1.00
84335;DHT22;74512;51.190;3.198;2023-12-28T08:20:06;11.50;1.00
84335;DHT22;74512;51.190;3.198;2023-12-28T08:22:32;11.50;1.00
84335;DHT22;74512;51.190;3.198;2023-12-28T08:24:58;11.30;1.00
84335;DHT22;74512;51.190;3.198;2023-12-28T08:27:23;11.30;1.00
84335;DHT22;74512;51.190;3.198;2023-12-28T08:29:49;11.40;1.00
84335;DHT22;74512;51.190;3.198;2023-12-28T08:32:15;11.40;1.00
84335;DHT22;74512;51.190;3.198;2023-12-28T08:34:42;11.40;1.00
84335;DHT22;74512;51.190;3.198;2023-12-28T08:37:08;11.50;1.00
84335;DHT22;74512;51.190;3.198;2023-12-28T08:39:34;11.30;1.00
84335;DHT22;74512;51.190;3.198;2023-12-28T08:42:00;11.30;1.00
84335;DHT22;74512;51.190;3.198;2023-12-28T08:44:25;11.40;1.00
84335;DHT22;74512;51.190;3.198;2023-12-28T08:46:51;11.40;1.00
84335;DHT22;74512;51.190;3.198;2023-12-28T08:49:17;11.30;1.00
84335;DHT22;74512;51.190;3.198;2023-12-28T08:51:42;11.30;1.00
84335;DHT22;74512;51.190;3.198;2023-12-28T08:54:08;11.40;1.00
84335;DHT22;74512;51.190;3.198;2023-12-28T08:56:34;11.30;1.00
84335;DHT22;74512;51.190;3.198;2023-12-28T08:59:00;11.40;1.00
84335;DHT22;74512;51.190;3.198;2023-12-28T09:01:26;11.30;1.00
84335;DHT22;74512;51.190;3.198;2023-12-28T09:03:53;11.40;1.00
84335;DHT22;74512;51.190;3.198;2023-12-28T09:06:20;11.30;1.00
84335;DHT22;74512;51.190;3.198;2023-12-28T09:08:48;11.40;1.00
84335;DHT22;74512;51.190;3.198;2023-12-28T09:11:14;11.40;1.00
84335;DHT22;74512;51.190;3.198;2023-12-28T09:13:40;11.30;1.00
84335;DHT22;74512;51.190;3.198;2023-12-28T09:16:09;11.40;1.00
84335;DHT22;74512;51.190;3.198;2023-12-28T09:18:35;11.40;1.00
84335;DHT22;74512;51.190;3.198;2023-12-28T09:21:05;11.40;1.00
84335;DHT22;74512;51.190;3.198;2023-12-28T09:23:31;11.50;1.00
84335;DHT22;74512;51.190;3.198;2023-12-28T09:25:58;11.40;1.00
84335;DHT22;74512;51.190;3.198;2023-12-28T09:28:24;11.50;1.00
84335;DHT22;74512;51.190;3.198;2023-12-28T09:30:49;11.40;1.00
84335;DHT22;74512;51.190;3.198;2023-12-28T09:33:15;11.50;1.00
84335;DHT22;74512;51.190;3.198;2023-12-28T09:35:41;11.50;1.00
84335;DHT22;74512;51.190;3.198;2023-12-28T09:38:07;11.50;1.00
84335;DHT22;74512;51.190;3.198;2023-12-28T09:40:35;11.50;1.00
84335;DHT22;74512;51.190;3.198;2023-12-28T09:43:19;11.60;1.00
84335;DHT22;74512;51.190;3.198;2023-12-28T09:45:49;11.60;1.00
84335;DHT22;74512;51.190;3.198;2023-12-28T09:48:19;11.50;1.00
84335;DHT22;74512;51.190;3.198;2023-12-28T09:50:49;11.60;1.00
84335;DHT22;74512;51.190;3.198;2023-12-28T09:53:15;11.40;1.00
84335;DHT22;74512;51.190;3.198;2023-12-28T09:55:41;11.40;1.00
84335;DHT22;74512;51.190;3.198;2023-12-28T09:58:06;11.40;1.00
84335;DHT22;74512;51.190;3.198;2023-12-28T10:00:32;11.50;1.00
84335;DHT22;74512;51.190;3.198;2023-12-28T10:02:58;11.50;1.00
84335;DHT22;74512;51.190;3.198;2023-12-28T10:05:24;11.50;1.00
84335;DHT22;74512;51.190;3.198;2023-12-28T10:07:50;11.50;1.00
84335;DHT22;74512;51.190;3.198;2023-12-28T10:10:16;11.50;1.00
84335;DHT22;74512;51.190;3.198;2023-12-28T10:12:42;11.60;1.00
84335;DHT22;74512;51.190;3.198;2023-12-28T10:15:09;11.70;1.00
84335;DHT22;74512;51.190;3.198;2023-12-28T10:17:35;11.80;1.00
84335;DHT22;74512;51.190;3.198;2023-12-28T10:20:03;11.80;1.00
84335;DHT22;74512;51.190;3.198;2023-12-28T10:22:34;11.80;1.00
84335;DHT22;74512;51.190;3.198;2023-12-28T10:25:01;11.90;1.00
84335;DHT22;74512;51.190;3.198;2023-12-28T10:27:27;11.80;1.00
84335;DHT22;74512;51.190;3.198;2023-12-28T10:29:56;12.00;1.00
84335;DHT22;74512;51.190;3.198;2023-12-28T10:32:22;11.90;1.00
84335;DHT22;74512;51.190;3.198;2023-12-28T10:34:52;12.00;1.00
84335;DHT22;74512;51.190;3.198;2023-12-28T10:37:20;12.00;1.00
84335;DHT22;74512;51.190;3.198;2023-12-28T10:39:48;11.90;1.00
84335;DHT22;74512;51.190;3.198;2023-12-28T10:42:31;11.90;1.00
84335;DHT22;74512;51.190;3.198;2023-12-28T10:45:09;12.00;1.00
84335;DHT22;74512;51.190;3.198;2023-12-28T10:47:42;12.10;1.00
84335;DHT22;74512;51.190;3.198;2023-12-28T10:50:10;12.10;1.00
84335;DHT22;74512;51.190;3.198;2023-12-28T10:52:37;12.10;1.00
84335;DHT22;74512;51.190;3.198;2023-12-28T10:55:40;12.10;1.00
84335;DHT22;74512;51.190;3.198;2023-12-28T10:58:17;12.10;1.00
84335;DHT22;74512;51.190;3.198;2023-12-28T11:00:54;12.10;1.00
84335;DHT22;74512;51.190;3.198;2023-12-28T11:03:27;12.10;1.00
84335;DHT22;74512;51.190;3.198;2023-12-28T11:05:53;12.10;1.00
84335;DHT22;74512;51.190;3.198;2023-12-28T11:08:21;12.20;1.00
84335;DHT22;74512;51.190;3.198;2023-12-28T11:10:48;12.10;1.00
84335;DHT22;74512;51.190;3.198;2023-12-28T11:13:17;12.10;1.00
84335;DHT22;74512;51.190;3.198;2023-12-28T11:15:44;12.10;1.00
84335;DHT22;74512;51.190;3.198;2023-12-28T11:18:10;12.10;1.00
84335;DHT22;74512;51.190;3.198;2023-12-28T11:20:37;12.00;1.00
84335;DHT22;74512;51.190;3.198;2023-12-28T11:23:03;12.10;1.00
84335;DHT22;74512;51.190;3.198;2023-12-28T11:25:31;12.10;1.00
84335;DHT22;74512;51.190;3.198;2023-12-28T11:28:00;12.20;1.00
84335;DHT22;74512;51.190;3.198;2023-12-28T11:30:26;12.30;1.00
84335;DHT22;74512;51.190;3.198;2023-12-28T11:32:56;12.20;1.00
84335;DHT22;74512;51.190;3.198;2023-12-28T11:35:22;12.20;1.00
84335;DHT22;74512;51.190;3.198;2023-12-28T11:37:51;12.10;1.00
84335;DHT22;74512;51.190;3.198;2023-12-28T11:40:17;11.90;1.00
84335;DHT22;74512;51.190;3.198;2023-12-28T11:42:49;11.90;1.00
84335;DHT22;74512;51.190;3.198;2023-12-28T11:45:17;11.70;1.00
84335;DHT22;74512;51.190;3.198;2023-12-28T11:47:43;11.90;1.00
84335;DHT22;74512;51.190;3.198;2023-12-28T11:50:09;11.80;1.00
84335;DHT22;74512;51.190;3.198;2023-12-28T11:52:35;11.80;1.00
84335;DHT22;74512;51.190;3.198;2023-12-28T11:55:00;11.90;1.00
84335;DHT22;74512;51.190;3.198;2023-12-28T11:57:26;12.00;1.00
84335;DHT22;74512;51.190;3.198;2023-12-28T11:59:57;12.00;1.00
84335;DHT22;74512;51.190;3.198;2023-12-28T12:02:23;11.90;1.00
84335;DHT22;74512;51.190;3.198;2023-12-28T12:04:53;12.10;1.00
84335;DHT22;74512;51.190;3.198;2023-12-28T12:07:18;12.10;1.00
84335;DHT22;74512;51.190;3.198;2023-12-28T12:09:44;12.10;1.00
84335;DHT22;74512;51.190;3.198;2023-12-28T12:12:10;12.10;1.00
84335;DHT22;74512;51.190;3.198;2023-12-28T12:14:35;12.00;1.00
84335;DHT22;74512;51.190;3.198;2023-12-28T12:17:01;12.10;1.00
84335;DHT22;74512;51.190;3.198;2023-12-28T12:19:28;12.10;1.00
84335;DHT22;74512;51.190;3.198;2023-12-28T12:21:57;12.20;1.00
84335;DHT22;74512;51.190;3.198;2023-12-28T12:24:23;12.10;1.00
84335;DHT22;74512;51.190;3.198;2023-12-28T12:26:49;12.10;1.00
84335;DHT22;74512;51.190;3.198;2023-12-28T12:29:21;12.20;1.00
84335;DHT22;74512;51.190;3.198;2023-12-28T12:31:48;12.10;1.00
84335;DHT22;74512;51.190;3.198;2023-12-28T12:34:17;12.10;1.00
84335;DHT22;74512;51.190;3.198;2023-12-28T12:36:43;12.10;1.00
84335;DHT22;74512;51.190;3.198;2023-12-28T12:39:13;12.10;1.00
84335;DHT22;74512;51.190;3.198;2023-12-28T12:41:38;12.20;1.00
84335;DHT22;74512;51.190;3.198;2023-12-28T12:44:04;12.20;1.00
84335;DHT22;74512;51.190;3.198;2023-12-28T12:46:30;12.30;1.00
84335;DHT22;74512;51.190;3.198;2023-12-28T12:48:57;12.10;1.00
84335;DHT22;74512;51.190;3.198;2023-12-28T12:51:24;12.00;1.00
84335;DHT22;74512;51.190;3.198;2023-12-28T12:53:50;12.00;1.00
84335;DHT22;74512;51.190;3.198;2023-12-28T12:56:20;12.00;1.00
84335;DHT22;74512;51.190;3.198;2023-12-28T12:58:46;12.10;1.00
84335;DHT22;74512;51.190;3.198;2023-12-28T13:01:12;12.10;1.00
84335;DHT22;74512;51.190;3.198;2023-12-28T13:03:37;12.10;1.00
84335;DHT22;74512;51.190;3.198;2023-12-28T13:06:04;12.00;1.00
84335;DHT22;74512;51.190;3.198;2023-12-28T13:08:30;11.90;1.00
84335;DHT22;74512;51.190;3.198;2023-12-28T13:10:55;11.90;1.00
84335;DHT22;74512;51.190;3.198;2023-12-28T13:13:21;11.90;1.00
84335;DHT22;74512;51.190;3.198;2023-12-28T13:15:47;12.10;1.00
84335;DHT22;74512;51.190;3.198;2023-12-28T13:18:12;12.00;1.00
84335;DHT22;74512;51.190;3.198;2023-12-28T13:20:40;11.90;1.00
84335;DHT22;74512;51.190;3.198;2023-12-28T13:23:06;12.00;1.00
84335;DHT22;74512;51.190;3.198;2023-12-28T13:25:31;12.00;1.00
84335;DHT22;74512;51.190;3.198;2023-12-28T13:27:57;12.10;1.00
84335;DHT22;74512;51.190;3.198;2023-12-28T13:30:22;12.00;1.00
84335;DHT22;74512;51.190;3.198;2023-12-28T13:32:50;12.00;1.00
84335;DHT22;74512;51.190;3.198;2023-12-28T13:35:16;12.10;1.00
84335;DHT22;74512;51.190;3.198;2023-12-28T13:37:43;12.10;1.00
84335;DHT22;74512;51.190;3.198;2023-12-28T13:40:09;12.00;1.00
84335;DHT22;74512;51.190;3.198;2023-12-28T13:42:35;12.00;1.00
84335;DHT22;74512;51.190;3.198;2023-12-28T13:45:00;11.90;1.00
84335;DHT22;74512;51.190;3.198;2023-12-28T13:47:26;12.00;1.00
84335;DHT22;74512;51.190;3.198;2023-12-28T13:49:51;12.00;1.00
84335;DHT22;74512;51.190;3.198;2023-12-28T13:52:17;12.10;1.00
84335;DHT22;74512;51.190;3.198;2023-12-28T13:54:43;12.00;1.00
84335;DHT22;74512;51.190;3.198;2023-12-28T13:57:08;12.10;1.00
84335;DHT22;74512;51.190;3.198;2023-12-28T13:59:34;12.00;1.00
84335;DHT22;74512;51.190;3.198;2023-12-28T14:01:59;12.10;1.00
84335;DHT22;74512;51.190;3.198;2023-12-28T14:04:25;12.00;1.00
84335;DHT22;74512;51.190;3.198;2023-12-28T14:06:51;12.00;1.00
84335;DHT22;74512;51.190;3.198;2023-12-28T14:09:16;12.00;1.00
84335;DHT22;74512;51.190;3.198;2023-12-28T14:11:46;12.00;1.00
84335;DHT22;74512;51.190;3.198;2023-12-28T14:14:12;12.00;1.00
84335;DHT22;74512;51.190;3.198;2023-12-28T14:16:39;11.90;1.00
84335;DHT22;74512;51.190;3.198;2023-12-28T14:19:04;11.90;1.00
84335;DHT22;74512;51.190;3.198;2023-12-28T14:21:35;11.90;1.00
84335;DHT22;74512;51.190;3.198;2023-12-28T14:24:02;11.90;1.00
84335;DHT22;74512;51.190;3.198;2023-12-28T14:26:28;12.00;1.00
84335;DHT22;74512;51.190;3.198;2023-12-28T14:28:57;12.00;1.00
84335;DHT22;74512;51.190;3.198;2023-12-28T14:31:22;11.90;1.00
84335;DHT22;74512;51.190;3.198;2023-12-28T14:33:48;12.00;1.00
84335;DHT22;74512;51.190;3.198;2023-12-28T14:36:30;12.00;1.00
84335;DHT22;74512;51.190;3.198;2023-12-28T14:39:00;11.90;1.00
84335;DHT22;74512;51.190;3.198;2023-12-28T14:41:26;12.00;1.00
84335;DHT22;74512;51.190;3.198;2023-12-28T14:43:52;12.10;1.00
84335;DHT22;74512;51.190;3.198;2023-12-28T14:46:18;12.00;1.00
84335;DHT22;74512;51.190;3.198;2023-12-28T14:48:43;11.90;1.00
84335;DHT22;74512;51.190;3.198;2023-12-28T14:51:09;11.90;1.00
84335;DHT22;74512;51.190;3.198;2023-12-28T14:53:35;11.90;1.00
84335;DHT22;74512;51.190;3.198;2023-12-28T14:56:00;12.00;1.00
84335;DHT22;74512;51.190;3.198;2023-12-28T14:58:26;12.00;1.00
84335;DHT22;74512;51.190;3.198;2023-12-28T15:00:52;11.90;1.00
84335;DHT22;74512;51.190;3.198;2023-12-28T15:03:19;12.00;1.00
84335;DHT22;74512;51.190;3.198;2023-12-28T15:05:45;12.00;1.00
84335;DHT22;74512;51.190;3.198;2023-12-28T15:08:10;11.90;1.00
84335;DHT22;74512;51.190;3.198;2023-12-28T15:10:36;11.80;1.00
84335;DHT22;74512;51.190;3.198;2023-12-28T15:13:02;11.90;1.00
84335;DHT22;74512;51.190;3.198;2023-12-28T15:15:28;11.90;1.00
84335;DHT22;74512;51.190;3.198;2023-12-28T15:17:54;11.90;1.00
84335;DHT22;74512;51.190;3.198;2023-12-28T15:20:21;11.80;1.00
84335;DHT22;74512;51.190;3.198;2023-12-28T15:22:47;12.00;1.00
84335;DHT22;74512;51.190;3.198;2023-12-28T15:25:13;11.90;1.00
84335;DHT22;74512;51.190;3.198;2023-12-28T15:27:38;11.90;1.00
84335;DHT22;74512;51.190;3.198;2023-12-28T15:30:04;11.90;1.00
84335;DHT22;74512;51.190;3.198;2023-12-28T15:32:31;11.90;1.00
84335;DHT22;74512;51.190;3.198;2023-12-28T15:34:57;11.80;1.00
84335;DHT22;74512;51.190;3.198;2023-12-28T15:37:22;11.90;1.00
84335;DHT22;74512;51.190;3.198;2023-12-28T15:39:48;11.80;1.00